Airfield :
LOGIN :

Register | Disclaimer

   EN    FR    IT 

 










Legend :    VFR   Marginal VFR   IFR   Intensive IFR   Very Intensive IFR
Visi :
Ceiling :
>= 8 km
>= 3000ft
5 to 8 km
1000 to 3000 ft
1500m to 5 km
500 to 1000 ft
800 to 1500m
200 to 500 ft
< 800m
< 200 ft
Symbols :   Thunderstorms  Fog  Heavy snow  Heavy precipitations  Wind > 20 kt
SIGMETs :     Misc.  Thunderstorms  Icing  Turbulence  Mountain Waves  Volcanic Ashes







- Airport Elevation : 13 ft
- IATA code : GOA


LIMJ - Genoa Cristoforo Colombo

CURRENT METAR :
  • 211820Z 01010KT 340V060 9999 SCT080 21/03 Q1015

EXPIRED METARs :
  • 211750Z 01010G22KT 320V050 9999 SCT080 22/03 Q1014
  • 211720Z 01010KT 330V060 9999 SCT080 22/03 Q1014
  • 211650Z 02010KT 340V060 9999 SCT080 22/04 Q1015
  • 211620Z 36010G22KT 300V050 9999 SCT080 22/05 Q1015
  • 211550Z 35010G26KT 330V050 9999 SCT080 23/06 Q1015

TAF TAF LIMJ
Valid from the 21 at 18:00 until the 22 at 18:00 UTC


211700Z 2118/2218 01013KT 9999 BKN070
BECMG 2213/2215 RA BKN012 BKN050
No reported NOTAMs for that airfield.



MET'MAP, your aeronautical weather chart ! - Copyright ORBIFLY December 2007 - Disclaimer

ORBIFLY MET'MAP TEAM :

Programming & Development : Alexandra Zaïnal
Concept & Development : Baudouin d'Aumeries
Co-Development & Prog : Marc-Olivier Méhu
Technical & hardware support : Manuel Goepfert

Contact : metmap@orbifly.com




SOURCES & CREDITS :

   NOAA